Time;durP1;ratioP1;P1;durP2;ratioP2;P2;SDS_P1;SDS_P2;PMS_P1;PMS_P2;Temp;Humidity;BMP_temperature;BMP_pressure;BME280_temperature;BME280_humidity;BME280_pressure;Samples;Min_cycle;Max_cycle;Signal;HPM_P1;HPM_P2
2023/02/16 00:01:24;;;;;;;83.15;46.10;;;4.50;99.90;;;;;;6210484;23;20469;-79
2023/02/16 00:03:51;;;;;;;89.25;47.45;;;4.80;99.90;;;;;;6215720;23;20153;-79
2023/02/16 00:06:17;;;;;;;87.65;46.85;;;4.70;99.90;;;;;;6190132;23;20065;-80
2023/02/16 00:08:48;;;;;;;88.45;47.90;;;4.40;99.90;;;;;;6188109;23;20126;-82
2023/02/16 00:14:05;;;;;;;79.80;47.20;;;4.60;99.90;;;;;;6214463;23;20020;-81
2023/02/16 00:16:31;;;;;;;78.05;47.10;;;4.40;99.90;;;;;;6165100;23;20078;-81
2023/02/16 00:18:57;;;;;;;88.25;47.50;;;4.40;99.90;;;;;;6189859;23;20047;-83
2023/02/16 00:21:22;;;;;;;90.88;48.22;;;4.30;99.90;;;;;;6188046;23;20516;-80
2023/02/16 00:23:48;;;;;;;89.30;48.20;;;4.60;99.90;;;;;;6189759;23;20355;-81
2023/02/16 00:26:19;;;;;;;86.97;47.85;;;4.50;99.90;;;;;;6215166;23;20429;-79
2023/02/16 00:28:45;;;;;;;82.45;47.65;;;4.40;99.90;;;;;;6188980;23;20443;-78
2023/02/16 00:31:16;;;;;;;88.88;47.30;;;4.50;99.90;;;;;;6213464;23;20308;-80
2023/02/16 00:33:42;;;;;;;85.93;48.55;;;4.40;99.90;;;;;;6188059;23;20453;-79
2023/02/16 00:36:08;;;;;;;88.45;49.10;;;4.70;99.90;;;;;;6189433;23;20054;-79
2023/02/16 00:38:33;;;;;;;93.93;49.55;;;4.60;99.90;;;;;;6187565;23;20043;-80
2023/02/16 00:40:59;;;;;;;83.78;47.90;;;4.60;99.90;;;;;;6189955;23;20016;-79
2023/02/16 00:43:28;;;;;;;79.20;47.55;;;4.70;99.90;;;;;;6189978;23;20059;-81
2023/02/16 00:45:55;;;;;;;84.28;46.97;;;4.40;99.90;;;;;;6191465;23;20020;-80
2023/02/16 00:48:21;;;;;;;85.75;48.28;;;4.30;99.90;;;;;;6189867;23;20254;-80
2023/02/16 00:50:46;;;;;;;87.80;47.42;;;4.20;99.90;;;;;;6215279;23;20016;-82
2023/02/16 00:53:13;;;;;;;89.50;48.42;;;4.70;99.90;;;;;;6214515;23;20009;-79
2023/02/16 00:55:40;;;;;;;88.95;47.53;;;4.50;99.90;;;;;;6221938;23;20039;-79
2023/02/16 00:58:16;;;;;;;90.38;47.20;;;4.50;99.90;;;;;;6220068;23;20051;-81
2023/02/16 01:00:49;;;;;;;91.15;48.67;;;4.40;99.90;;;;;;6218117;23;20122;-81
2023/02/16 01:03:18;;;;;;;83.68;46.88;;;4.50;99.90;;;;;;6216516;23;20439;-78
2023/02/16 01:05:44;;;;;;;85.93;47.88;;;4.10;99.90;;;;;;6193080;23;20012;-79
2023/02/16 01:11:06;;;;;;;84.00;47.35;;;4.40;99.90;;;;;;6196487;23;20020;-79
2023/02/16 01:13:37;;;;;;;86.05;48.28;;;4.10;99.90;;;;;;6191836;23;20372;-81
2023/02/16 01:16:02;;;;;;;84.32;47.70;;;4.10;99.90;;;;;;6215531;23;20016;-80
2023/02/16 01:18:28;;;;;;;89.32;48.50;;;4.00;99.90;;;;;;6218034;23;20015;-79
2023/02/16 01:20:54;;;;;;;92.53;49.95;;;4.30;99.90;;;;;;6193274;23;20091;-80
2023/02/16 01:23:19;;;;;;;88.25;49.10;;;4.30;99.90;;;;;;6191384;23;20012;-79
2023/02/16 01:25:45;;;;;;;88.43;48.30;;;4.30;99.90;;;;;;6191692;23;20146;-80
2023/02/16 01:28:35;;;;;;;87.03;48.92;;;4.00;99.90;;;;;;6224017;23;20012;-77
2023/02/16 01:31:01;;;;;;;88.78;47.97;;;4.00;99.90;;;;;;6195832;23;20070;-79
2023/02/16 01:33:26;;;;;;;95.28;49.88;;;4.00;99.90;;;;;;6192767;23;20008;-79
2023/02/16 01:35:55;;;;;;;85.72;48.92;;;4.00;99.90;;;;;;6216294;23;20095;-80
2023/02/16 01:38:26;;;;;;;87.88;47.88;;;4.00;99.90;;;;;;6243619;23;20320;-81
2023/02/16 01:41:23;;;;;;;84.93;48.58;;;3.90;99.90;;;;;;6217752;23;20431;-81
2023/02/16 01:44:16;;;;;;;88.32;49.28;;;4.20;99.90;;;;;;6215358;23;20023;-80
2023/02/16 01:46:49;;;;;;;96.30;49.42;;;4.00;99.90;;;;;;6067199;23;20018;-81
2023/02/16 01:49:17;;;;;;;81.20;48.13;;;4.20;99.90;;;;;;6066570;23;20460;-81
2023/02/16 01:51:56;;;;;;;86.07;48.70;;;3.90;99.90;;;;;;6044712;23;20337;-81
2023/02/16 01:54:41;;;;;;;93.88;50.90;;;4.30;99.90;;;;;;6071134;23;20014;-80
2023/02/16 01:57:07;;;;;;;90.90;49.17;;;3.90;99.90;;;;;;6042952;23;20025;-82
2023/02/16 01:59:41;;;;;;;92.47;49.47;;;4.10;99.90;;;;;;6068008;23;20121;-81
2023/02/16 02:02:17;;;;;;;87.97;49.65;;;4.00;99.90;;;;;;6044665;23;20510;-80
2023/02/16 02:07:50;;;;;;;85.22;50.08;;;4.20;99.90;;;;;;6067505;23;20018;-81
2023/02/16 02:10:57;;;;;;;90.65;50.10;;;4.00;99.90;;;;;;6043850;23;20022;-80
2023/02/16 02:13:44;;;;;;;87.65;49.42;;;4.20;99.90;;;;;;6044787;23;20030;-79
2023/02/16 02:16:10;;;;;;;89.50;49.95;;;3.80;99.90;;;;;;6066386;23;20161;-81
2023/02/16 02:18:36;;;;;;;93.45;50.50;;;3.90;99.90;;;;;;6068823;23;20401;-81
2023/02/16 02:24:31;;;;;;;85.50;47.40;;;4.00;99.90;;;;;;6173266;23;20026;-83
2023/02/16 02:27:14;;;;;;;90.65;49.88;;;3.80;99.90;;;;;;6190027;23;20024;-81
2023/02/16 02:30:03;;;;;;;84.22;49.92;;;4.10;99.90;;;;;;6191528;23;20027;-80
2023/02/16 02:32:49;;;;;;;87.32;48.63;;;4.00;99.90;;;;;;6190118;23;20023;-80
2023/02/16 02:35:53;;;;;;;87.03;49.10;;;4.10;99.90;;;;;;6191449;23;20016;-82
2023/02/16 02:38:34;;;;;;;84.55;49.03;;;3.80;99.90;;;;;;6214722;23;20023;-81
2023/02/16 02:41:12;;;;;;;97.57;50.63;;;3.80;99.90;;;;;;6192198;23;20012;-81
2023/02/16 02:43:52;;;;;;;88.38;49.35;;;4.00;99.90;;;;;;6216223;23;20020;-80
2023/02/16 02:46:25;;;;;;;87.60;49.15;;;3.70;99.90;;;;;;6216379;23;20056;-80
2023/02/16 02:48:50;;;;;;;88.82;48.97;;;3.80;99.90;;;;;;6216226;23;20561;-81
2023/02/16 02:51:29;;;;;;;89.05;49.15;;;3.80;99.90;;;;;;6216158;23;20016;-82
2023/02/16 03:00:46;;;;;;;89.13;49.17;;;3.90;99.90;;;;;;6215827;23;20024;-82
2023/02/16 03:03:18;;;;;;;91.45;49.25;;;4.00;99.90;;;;;;6213407;23;20016;-83
2023/02/16 03:06:06;;;;;;;86.68;49.30;;;4.20;99.90;;;;;;6188429;23;20046;-81
2023/02/16 03:08:33;;;;;;;92.25;49.53;;;4.30;99.90;;;;;;6214309;23;20012;-82
2023/02/16 03:14:13;;;;;;;86.20;48.58;;;4.10;99.90;;;;;;6213483;23;20095;-80
2023/02/16 03:16:47;;;;;;;87.45;49.85;;;4.20;99.90;;;;;;6211861;23;20016;-81
2023/02/16 03:30:24;;;;;;;88.68;50.20;;;4.40;99.90;;;;;;6213433;23;20105;-81
2023/02/16 03:32:53;;;;;;;83.25;47.92;;;4.80;99.90;;;;;;6212809;23;20036;-81
2023/02/16 03:35:20;;;;;;;87.57;48.78;;;4.80;99.90;;;;;;6188300;23;20016;-80
2023/02/16 03:37:46;;;;;;;79.65;48.40;;;4.70;99.90;;;;;;6187010;23;20012;-79
2023/02/16 03:40:27;;;;;;;86.03;48.30;;;5.00;99.90;;;;;;6213860;23;20012;-83
2023/02/16 03:42:57;;;;;;;88.03;48.63;;;5.00;99.90;;;;;;6188719;23;20025;-82
2023/02/16 03:45:23;;;;;;;85.13;48.40;;;4.70;99.90;;;;;;6187937;23;20069;-82
2023/02/16 03:47:49;;;;;;;79.88;48.60;;;4.70;99.90;;;;;;6187281;23;20058;-80
2023/02/16 03:50:15;;;;;;;86.32;50.28;;;5.00;99.90;;;;;;6189094;23;20013;-80
2023/02/16 03:52:41;;;;;;;83.57;48.55;;;5.00;99.90;;;;;;6188526;23;20012;-82
2023/02/16 03:55:07;;;;;;;77.63;47.78;;;4.70;99.90;;;;;;6213714;23;20106;-81
2023/02/16 03:57:33;;;;;;;84.13;47.95;;;4.90;99.90;;;;;;6212029;23;20012;-82
2023/02/16 03:59:58;;;;;;;88.72;49.78;;;5.00;99.90;;;;;;6212972;23;20026;-80
2023/02/16 04:02:26;;;;;;;79.32;48.97;;;5.20;99.90;;;;;;6211700;23;20099;-79
2023/02/16 04:04:52;;;;;;;80.30;49.38;;;5.10;99.90;;;;;;6164093;23;20035;-81
2023/02/16 04:07:17;;;;;;;83.32;48.22;;;5.20;99.90;;;;;;6212214;23;20433;-79
2023/02/16 04:09:43;;;;;;;82.63;48.33;;;5.00;99.90;;;;;;6212204;23;20114;-83
2023/02/16 04:14:55;;;;;;;83.63;49.17;;;5.20;99.90;;;;;;6213535;22;20024;-82
2023/02/16 04:17:21;;;;;;;84.07;49.42;;;5.10;99.90;;;;;;6186246;23;20087;-82
2023/02/16 04:19:47;;;;;;;83.80;48.22;;;5.30;99.90;;;;;;6188455;23;20028;-81
2023/02/16 04:22:12;;;;;;;81.40;48.13;;;5.10;99.90;;;;;;6214742;23;20012;-82
2023/02/16 04:24:38;;;;;;;81.53;48.45;;;5.30;99.90;;;;;;6215080;23;20031;-80
2023/02/16 04:27:03;;;;;;;81.55;48.03;;;5.10;99.90;;;;;;6215783;23;20162;-81
2023/02/16 04:29:29;;;;;;;82.80;49.58;;;5.30;99.90;;;;;;6215673;23;20012;-82
2023/02/16 04:31:55;;;;;;;77.90;47.65;;;5.30;99.90;;;;;;6213945;23;20062;-80
2023/02/16 04:34:21;;;;;;;84.18;48.80;;;5.00;99.90;;;;;;6190971;23;20012;-83
2023/02/16 04:36:46;;;;;;;90.28;49.08;;;5.20;99.90;;;;;;6215590;23;20016;-82
2023/02/16 04:39:12;;;;;;;84.68;51.15;;;5.40;99.90;;;;;;6214996;23;20008;-80
2023/02/16 04:41:37;;;;;;;78.82;47.53;;;5.20;99.90;;;;;;6213664;23;20273;-82
2023/02/16 04:44:03;;;;;;;89.68;50.03;;;5.50;99.90;;;;;;6215221;23;20123;-82
2023/02/16 04:46:29;;;;;;;80.75;49.15;;;5.20;99.90;;;;;;6188988;23;20012;-83
2023/02/16 04:48:55;;;;;;;79.95;47.45;;;5.30;99.90;;;;;;6215755;23;20004;-83
2023/02/16 04:51:20;;;;;;;80.75;49.38;;;5.50;99.90;;;;;;6190882;23;20008;-83
2023/02/16 04:53:46;;;;;;;84.25;49.80;;;5.30;99.90;;;;;;6188184;23;20024;-80
2023/02/16 04:56:12;;;;;;;83.03;48.80;;;5.10;99.90;;;;;;6215879;23;20031;-81
2023/02/16 04:58:38;;;;;;;82.85;49.15;;;5.30;99.90;;;;;;6216095;23;20020;-81
2023/02/16 05:01:03;;;;;;;78.80;48.67;;;5.40;99.90;;;;;;6189393;23;20058;-79
2023/02/16 05:03:29;;;;;;;84.32;50.50;;;5.30;99.90;;;;;;6215156;23;20344;-82
2023/02/16 05:05:55;;;;;;;83.75;49.85;;;5.50;99.90;;;;;;6215522;23;20012;-80
2023/02/16 05:08:20;;;;;;;86.25;49.22;;;5.50;99.90;;;;;;6213788;23;20016;-79
2023/02/16 05:14:40;;;;;;;84.68;48.75;;;5.40;99.90;;;;;;6189879;23;20022;-79
2023/02/16 05:16:15;;;;;;;79.80;49.47;;;5.30;99.90;;;;;;6214047;23;20028;-82
2023/02/16 05:18:41;;;;;;;83.18;49.00;;;5.50;99.90;;;;;;6189938;23;20460;-81
2023/02/16 05:23:51;;;;;;;78.70;47.60;;;5.50;99.90;;;;;;6215008;23;20091;-79
2023/02/16 05:26:16;;;;;;;82.13;46.60;;;5.40;99.90;;;;;;6214416;23;20054;-80
2023/02/16 05:28:42;;;;;;;77.68;48.88;;;5.40;99.90;;;;;;6215251;23;20091;-77
2023/02/16 05:31:07;;;;;;;82.85;49.13;;;5.60;99.90;;;;;;6214627;23;20233;-81
2023/02/16 05:33:33;;;;;;;85.07;50.22;;;5.40;99.90;;;;;;6190994;23;20004;-79
2023/02/16 05:35:59;;;;;;;80.22;49.65;;;5.70;99.90;;;;;;6192608;23;20012;-77
2023/02/16 05:38:25;;;;;;;78.78;48.45;;;5.40;99.90;;;;;;6214867;23;20298;-79
2023/02/16 05:40:51;;;;;;;92.07;50.22;;;5.50;99.90;;;;;;6190534;23;20012;-81
2023/02/16 05:43:17;;;;;;;77.05;47.75;;;5.70;99.90;;;;;;6215903;23;20391;-80
2023/02/16 05:45:43;;;;;;;84.43;48.78;;;5.70;99.90;;;;;;6215879;23;20024;-80
2023/02/16 05:48:09;;;;;;;80.93;47.92;;;5.50;99.90;;;;;;6215669;23;20328;-78
2023/02/16 05:50:34;;;;;;;77.68;47.78;;;5.80;99.90;;;;;;6217812;23;20428;-79
2023/02/16 05:53:00;;;;;;;77.88;48.42;;;5.70;99.90;;;;;;6167126;23;20015;-80
2023/02/16 05:55:44;;;;;;;78.22;47.15;;;5.60;99.90;;;;;;6220315;23;20012;-82
2023/02/16 05:58:10;;;;;;;81.50;49.85;;;5.50;99.90;;;;;;6214252;23;20412;-80
2023/02/16 06:00:37;;;;;;;81.80;48.58;;;5.80;99.90;;;;;;6216496;23;20020;-80
2023/02/16 06:03:02;;;;;;;94.45;50.05;;;5.50;99.90;;;;;;6213604;23;20022;-80
2023/02/16 06:05:28;;;;;;;81.95;49.13;;;5.50;99.90;;;;;;6216347;23;20099;-82
2023/02/16 06:07:54;;;;;;;86.00;48.75;;;5.70;99.90;;;;;;6216150;23;20074;-78
2023/02/16 06:10:19;;;;;;;81.32;48.15;;;5.50;99.90;;;;;;6190825;23;20019;-81
2023/02/16 06:12:45;;;;;;;89.00;52.03;;;5.80;99.90;;;;;;6215708;23;20027;-82
2023/02/16 06:15:11;;;;;;;79.32;50.15;;;5.60;99.90;;;;;;6216875;22;20127;-83
2023/02/16 06:17:37;;;;;;;82.28;47.30;;;5.50;99.90;;;;;;6190534;23;20016;-81
2023/02/16 06:20:03;;;;;;;85.25;50.33;;;5.90;99.90;;;;;;6217892;23;20087;-80
2023/02/16 06:22:29;;;;;;;87.45;50.92;;;5.80;99.90;;;;;;6216749;23;20016;-80
2023/02/16 06:24:55;;;;;;;84.32;51.60;;;5.70;99.90;;;;;;6166377;23;20186;-79
2023/02/16 06:27:20;;;;;;;85.30;50.92;;;5.50;99.90;;;;;;6216778;23;20266;-83
2023/02/16 06:29:46;;;;;;;83.60;51.35;;;5.70;99.90;;;;;;6217308;23;20758;-82
2023/02/16 06:32:12;;;;;;;90.93;51.42;;;5.40;99.90;;;;;;6190806;23;20018;-79
2023/02/16 06:34:37;;;;;;;94.57;52.13;;;5.70;99.90;;;;;;6217744;23;20012;-80
2023/02/16 06:37:03;;;;;;;88.20;50.97;;;5.50;99.90;;;;;;6191591;23;20012;-80
2023/02/16 06:39:29;;;;;;;88.63;51.10;;;5.80;99.90;;;;;;6192297;23;20062;-77
2023/02/16 06:41:54;;;;;;;88.15;49.70;;;5.50;99.90;;;;;;6216484;23;20082;-81
2023/02/16 06:44:20;;;;;;;83.25;48.65;;;5.50;99.90;;;;;;6190408;23;20012;-80
2023/02/16 06:46:46;;;;;;;84.50;50.25;;;5.90;99.90;;;;;;6213309;23;20012;-78
2023/02/16 06:49:17;;;;;;;81.72;50.33;;;5.90;99.90;;;;;;6216088;23;20008;-80
2023/02/16 06:51:43;;;;;;;82.22;49.42;;;5.60;99.90;;;;;;6191495;23;20012;-80
2023/02/16 06:54:10;;;;;;;80.60;50.05;;;6.00;99.90;;;;;;6194561;23;20155;-80
2023/02/16 06:56:36;;;;;;;85.80;50.95;;;5.60;99.90;;;;;;6218005;23;20008;-82
2023/02/16 06:59:02;;;;;;;82.93;51.70;;;5.90;99.90;;;;;;6218500;23;20306;-83
2023/02/16 07:01:28;;;;;;;89.18;49.85;;;5.80;99.90;;;;;;6193129;23;20055;-80
2023/02/16 07:03:56;;;;;;;87.78;51.63;;;5.70;99.90;;;;;;6218582;23;20020;-79
2023/02/16 07:06:24;;;;;;;84.43;50.67;;;5.70;99.90;;;;;;6192327;23;20016;-83
2023/02/16 07:08:51;;;;;;;90.82;52.22;;;6.00;99.90;;;;;;6192277;23;20381;-81
2023/02/16 07:11:16;;;;;;;84.93;50.45;;;6.00;99.90;;;;;;6215344;23;20016;-80
2023/02/16 07:13:42;;;;;;;88.22;51.85;;;5.70;99.90;;;;;;6188351;23;20093;-81
2023/02/16 07:16:09;;;;;;;84.68;52.30;;;5.70;99.90;;;;;;6188801;23;20016;-80
2023/02/16 07:18:35;;;;;;;88.78;49.08;;;6.00;99.90;;;;;;6190241;23;20574;-79
2023/02/16 07:21:00;;;;;;;85.72;51.97;;;5.80;99.90;;;;;;6190141;23;20048;-85
2023/02/16 07:23:26;;;;;;;82.68;51.47;;;6.20;99.90;;;;;;6188148;23;20016;-79
2023/02/16 07:25:52;;;;;;;88.90;52.67;;;6.20;99.90;;;;;;6189679;23;20023;-81
2023/02/16 07:28:18;;;;;;;81.65;50.33;;;5.80;99.90;;;;;;6188568;23;20030;-78
2023/02/16 07:30:44;;;;;;;89.28;51.47;;;6.00;99.90;;;;;;6213702;23;20425;-83
2023/02/16 07:33:10;;;;;;;82.95;52.00;;;6.20;99.90;;;;;;6210866;23;20012;-82
2023/02/16 07:35:36;;;;;;;85.00;51.28;;;6.20;99.90;;;;;;6213183;23;20367;-77
2023/02/16 07:38:04;;;;;;;89.10;52.40;;;6.10;99.90;;;;;;6196088;23;20012;-83
2023/02/16 07:40:30;;;;;;;86.07;51.92;;;6.30;99.90;;;;;;6213967;23;20050;-83
2023/02/16 07:43:00;;;;;;;85.20;52.00;;;6.20;99.90;;;;;;6188089;23;20016;-80
2023/02/16 07:45:26;;;;;;;82.88;50.63;;;6.40;99.90;;;;;;6187721;23;20012;-84
2023/02/16 07:47:51;;;;;;;80.93;50.13;;;6.20;99.90;;;;;;6213119;23;20309;-80
2023/02/16 07:50:17;;;;;;;82.28;51.60;;;6.10;99.90;;;;;;6186465;23;20254;-82
2023/02/16 07:52:43;;;;;;;88.13;53.00;;;6.10;99.90;;;;;;6186338;23;20017;-82
2023/02/16 07:55:10;;;;;;;91.65;51.75;;;6.40;99.90;;;;;;6186943;23;20035;-81
2023/02/16 07:57:37;;;;;;;87.25;50.85;;;6.20;99.90;;;;;;6188340;23;20019;-83
2023/02/16 08:00:06;;;;;;;85.80;51.85;;;6.60;99.90;;;;;;6215522;23;20027;-84
2023/02/16 08:02:32;;;;;;;81.00;50.13;;;6.30;99.90;;;;;;6189204;23;20046;-78
2023/02/16 08:04:59;;;;;;;83.28;51.45;;;6.30;99.90;;;;;;6188979;23;20051;-81
2023/02/16 08:07:25;;;;;;;83.63;50.17;;;6.60;99.90;;;;;;6189081;23;20046;-80
2023/02/16 08:09:51;;;;;;;86.95;52.33;;;6.50;99.90;;;;;;6198191;23;20483;-82
2023/02/16 08:12:36;;;;;;;90.65;52.65;;;6.80;99.90;;;;;;6184502;23;20019;-84
2023/02/16 08:15:02;;;;;;;85.03;52.15;;;6.50;99.90;;;;;;6187404;23;20059;-78
2023/02/16 08:17:28;;;;;;;83.85;51.10;;;6.80;99.90;;;;;;6212425;23;20368;-81
2023/02/16 08:19:54;;;;;;;89.15;51.45;;;6.70;99.90;;;;;;6186571;23;20016;-81
2023/02/16 08:22:19;;;;;;;84.88;52.17;;;6.80;99.90;;;;;;6212695;23;20022;-77
2023/02/16 08:24:45;;;;;;;86.45;50.83;;;6.80;99.90;;;;;;6212533;23;20035;-79
2023/02/16 08:27:14;;;;;;;85.25;50.03;;;6.70;99.90;;;;;;6209722;23;20681;-80
2023/02/16 08:29:40;;;;;;;82.88;49.95;;;7.00;99.90;;;;;;6187412;23;20098;-79
2023/02/16 08:32:06;;;;;;;86.97;50.22;;;6.80;99.90;;;;;;6186119;23;20020;-79
2023/02/16 08:34:33;;;;;;;84.32;49.88;;;6.90;99.90;;;;;;6184619;23;20050;-79
2023/02/16 08:37:14;;;;;;;91.80;51.50;;;6.80;99.90;;;;;;6231574;23;20016;-79
2023/02/16 08:39:40;;;;;;;84.85;49.65;;;7.00;99.90;;;;;;6186788;23;20027;-78
2023/02/16 08:42:06;;;;;;;81.18;50.35;;;7.00;99.90;;;;;;6211302;23;20012;-77
2023/02/16 08:44:31;;;;;;;90.57;50.88;;;7.00;99.90;;;;;;6186656;23;20023;-81
2023/02/16 08:46:59;;;;;;;90.20;50.58;;;7.20;99.90;;;;;;6211019;23;20008;-80
2023/02/16 08:49:26;;;;;;;79.80;48.65;;;7.30;99.90;;;;;;6188315;23;20067;-84
2023/02/16 08:51:57;;;;;;;81.25;50.50;;;7.20;99.90;;;;;;6189362;23;20014;-80
2023/02/16 08:54:29;;;;;;;89.97;50.75;;;7.30;99.90;;;;;;6162878;23;20016;-80
2023/02/16 08:57:13;;;;;;;91.20;50.60;;;7.00;99.90;;;;;;6187807;23;20433;-80
2023/02/16 08:59:39;;;;;;;76.90;49.28;;;7.30;99.90;;;;;;6213332;23;20023;-80
2023/02/16 09:02:05;;;;;;;90.78;50.88;;;7.00;99.90;;;;;;6213052;23;20333;-81
2023/02/16 09:04:31;;;;;;;93.28;49.50;;;7.10;99.90;;;;;;6185958;23;20024;-81
2023/02/16 09:06:57;;;;;;;83.95;51.00;;;7.20;99.90;;;;;;6187150;23;20019;-78
2023/02/16 09:09:23;;;;;;;81.65;49.13;;;7.40;99.90;;;;;;6187568;23;20008;-82
2023/02/16 09:11:49;;;;;;;80.57;49.83;;;7.50;99.90;;;;;;6188501;23;20016;-80
2023/02/16 09:14:17;;;;;;;84.60;49.53;;;7.60;99.90;;;;;;6186809;23;20012;-79
2023/02/16 09:16:47;;;;;;;84.10;48.88;;;7.20;99.90;;;;;;6217081;23;20016;-78
2023/02/16 09:19:19;;;;;;;88.78;50.40;;;7.40;99.90;;;;;;6191596;23;20020;-83
2023/02/16 09:21:55;;;;;;;87.63;49.45;;;7.30;99.90;;;;;;6194825;23;20434;-81
2023/02/16 09:24:20;;;;;;;85.20;48.90;;;7.60;99.90;;;;;;6191660;23;20054;-82
2023/02/16 09:26:46;;;;;;;85.97;50.97;;;7.40;99.90;;;;;;6222054;23;20061;-77
2023/02/16 09:29:13;;;;;;;85.55;49.05;;;7.30;99.90;;;;;;6218282;23;20012;-80
2023/02/16 09:31:40;;;;;;;81.82;49.08;;;7.40;99.90;;;;;;6194759;23;20020;-80
2023/02/16 09:34:17;;;;;;;85.68;49.70;;;7.40;99.90;;;;;;6192808;23;20030;-80
2023/02/16 09:36:43;;;;;;;83.38;48.15;;;7.50;99.90;;;;;;6218636;23;20016;-81
2023/02/16 09:39:10;;;;;;;88.57;49.03;;;7.80;99.90;;;;;;6217891;23;20352;-79
2023/02/16 09:42:05;;;;;;;81.38;48.30;;;7.60;99.90;;;;;;6193077;23;20096;-80
2023/02/16 09:44:40;;;;;;;84.13;48.58;;;7.90;99.90;;;;;;6193031;23;20035;-77
2023/02/16 09:47:33;;;;;;;85.40;50.45;;;7.90;99.90;;;;;;6217708;23;20039;-80
2023/02/16 09:50:12;;;;;;;89.93;47.60;;;8.10;99.90;;;;;;6068840;23;20022;-81
2023/02/16 09:52:55;;;;;;;82.72;48.75;;;8.20;99.90;;;;;;6045241;23;20049;-79
2023/02/16 09:55:23;;;;;;;82.57;49.25;;;8.00;99.90;;;;;;6042770;23;20046;-81
2023/02/16 09:58:22;;;;;;;85.43;48.13;;;8.20;99.90;;;;;;6043171;23;20018;-78
2023/02/16 10:01:10;;;;;;;81.93;48.47;;;8.20;99.90;;;;;;6067878;23;20093;-79
2023/02/16 10:03:45;;;;;;;80.13;47.72;;;8.20;99.90;;;;;;5978147;24;20024;-80
2023/02/16 10:06:31;;;;;;;85.75;48.30;;;8.10;99.90;;;;;;5953752;24;20396;-77
2023/02/16 10:09:10;;;;;;;79.50;47.38;;;8.10;99.90;;;;;;5978160;24;20020;-80
2023/02/16 10:11:59;;;;;;;88.13;49.85;;;8.20;99.90;;;;;;5955588;24;20026;-79
2023/02/16 10:14:41;;;;;;;86.93;47.90;;;8.10;99.90;;;;;;5977716;24;20286;-81
2023/02/16 10:17:42;;;;;;;90.38;49.90;;;8.10;99.90;;;;;;5974253;23;20098;-77
2023/02/16 10:20:17;;;;;;;91.00;47.92;;;8.00;99.90;;;;;;5919219;24;20021;-79
2023/02/16 10:22:49;;;;;;;87.53;47.85;;;8.10;99.90;;;;;;5921122;24;20042;-79
2023/02/16 10:25:33;;;;;;;94.05;50.50;;;8.30;99.90;;;;;;5923778;24;20700;-79
2023/02/16 10:28:17;;;;;;;96.53;49.08;;;8.30;99.90;;;;;;6002529;23;20023;-79
2023/02/16 10:30:52;;;;;;;93.80;49.72;;;8.40;99.90;;;;;;5981565;23;20023;-78
2023/02/16 10:33:45;;;;;;;94.00;50.55;;;8.10;99.90;;;;;;6028583;23;20042;-80
2023/02/16 10:37:03;;;;;;;92.40;51.30;;;8.10;99.90;;;;;;6004604;23;20015;-81
2023/02/16 10:40:09;;;;;;;90.90;50.53;;;8.40;99.90;;;;;;5954360;23;20891;-82
2023/02/16 10:42:49;;;;;;;95.47;50.60;;;8.20;99.90;;;;;;6030481;23;20066;-79
2023/02/16 10:45:29;;;;;;;107.50;52.35;;;8.40;99.90;;;;;;6008895;23;20023;-81
2023/02/16 10:47:54;;;;;;;92.30;50.95;;;8.10;99.90;;;;;;6032548;23;20069;-80
2023/02/16 10:50:32;;;;;;;97.32;52.17;;;8.10;99.90;;;;;;6009130;23;20015;-81
2023/02/16 10:53:05;;;;;;;106.47;53.58;;;8.10;99.90;;;;;;5983448;23;20023;-82
2023/02/16 10:55:31;;;;;;;101.63;52.47;;;8.40;99.90;;;;;;6039855;23;20019;-80
2023/02/16 10:58:37;;;;;;;98.57;51.55;;;8.20;99.90;;;;;;6041142;23;20019;-79
2023/02/16 11:01:17;;;;;;;104.32;53.35;;;8.30;99.90;;;;;;5974704;24;20481;-81
2023/02/16 11:03:48;;;;;;;99.53;51.78;;;8.20;99.90;;;;;;5927307;24;20024;-79
2023/02/16 11:06:18;;;;;;;96.68;51.63;;;8.30;99.90;;;;;;5975381;24;20048;-79
2023/02/16 11:08:56;;;;;;;110.43;54.60;;;8.20;99.90;;;;;;5929455;24;20133;-81
2023/02/16 11:11:36;;;;;;;99.20;53.53;;;8.00;99.90;;;;;;5951649;24;20024;-83
2023/02/16 11:14:08;;;;;;;104.55;52.67;;;8.10;99.90;;;;;;6054236;23;20439;-79
2023/02/16 11:16:34;;;;;;;101.85;52.95;;;8.10;99.90;;;;;;6099924;23;20097;-82
2023/02/16 11:19:07;;;;;;;98.57;54.03;;;8.30;99.90;;;;;;6039784;23;20025;-81
2023/02/16 11:21:49;;;;;;;104.22;54.10;;;8.10;99.90;;;;;;6064282;23;20022;-80
2023/02/16 11:24:34;;;;;;;101.93;53.08;;;8.10;99.90;;;;;;6040709;23;20185;-80
2023/02/16 11:27:13;;;;;;;103.75;53.05;;;8.20;99.90;;;;;;6064619;23;20018;-82
2023/02/16 11:29:39;;;;;;;96.32;52.53;;;8.20;99.90;;;;;;6086677;23;20121;-81
2023/02/16 11:32:11;;;;;;;103.18;55.28;;;8.20;99.90;;;;;;6156035;23;20019;-79
2023/02/16 11:34:39;;;;;;;103.25;54.45;;;8.30;99.90;;;;;;6188727;23;20266;-81
2023/02/16 11:37:33;;;;;;;93.80;51.75;;;8.40;99.90;;;;;;6213265;23;20042;-80
2023/02/16 11:40:21;;;;;;;98.32;54.92;;;8.50;99.90;;;;;;6215211;23;20016;-84
2023/02/16 11:42:53;;;;;;;105.50;53.95;;;8.30;99.90;;;;;;6240984;23;20027;-84
2023/02/16 11:45:31;;;;;;;97.85;53.80;;;8.70;99.90;;;;;;6213350;23;20016;-80
2023/02/16 11:48:02;;;;;;;106.50;52.75;;;8.70;99.90;;;;;;6187419;23;20070;-82
2023/02/16 11:50:34;;;;;;;104.05;54.38;;;8.80;99.90;;;;;;6186642;23;20119;-81
2023/02/16 11:53:08;;;;;;;101.05;54.75;;;8.90;99.90;;;;;;6190247;23;20154;-82
2023/02/16 11:55:36;;;;;;;99.55;55.33;;;8.80;99.90;;;;;;6190494;23;20043;-81
2023/02/16 11:58:26;;;;;;;106.43;54.85;;;8.90;99.90;;;;;;6213480;23;20305;-83
2023/02/16 12:01:10;;;;;;;99.72;53.95;;;8.90;99.90;;;;;;6212701;23;20012;-79
2023/02/16 12:04:13;;;;;;;99.63;53.90;;;8.90;99.90;;;;;;6187011;23;20385;-82
2023/02/16 12:06:57;;;;;;;105.75;56.97;;;8.50;99.90;;;;;;6214004;23;20073;-82
2023/02/16 12:09:39;;;;;;;101.38;55.88;;;8.50;99.90;;;;;;6191028;23;20436;-84
2023/02/16 12:12:25;;;;;;;102.57;55.20;;;8.60;99.90;;;;;;6215837;23;20387;-82
2023/02/16 12:15:02;;;;;;;102.90;54.60;;;8.90;99.90;;;;;;6215854;23;20119;-80
2023/02/16 12:17:43;;;;;;;106.15;55.95;;;9.20;99.90;;;;;;6241839;23;20048;-79
2023/02/16 12:20:32;;;;;;;104.68;55.85;;;9.00;99.90;;;;;;6191237;23;20099;-80
2023/02/16 12:23:21;;;;;;;102.55;55.33;;;9.40;99.90;;;;;;6243098;23;20091;-81
2023/02/16 12:25:51;;;;;;;101.30;53.65;;;9.30;99.90;;;;;;6242982;23;20555;-83
2023/02/16 12:28:40;;;;;;;89.13;48.60;;;9.40;99.90;;;;;;6215474;23;20083;-81
2023/02/16 12:31:49;;;;;;;89.47;52.20;;;9.60;99.90;;;;;;6099280;23;20092;-84
2023/02/16 12:34:26;;;;;;;92.68;51.20;;;9.30;99.90;;;;;;6125380;23;20095;-81
2023/02/16 12:37:29;;;;;;;80.95;48.00;;;9.50;99.90;;;;;;6100401;23;20426;-84
2023/02/16 12:40:13;;;;;;;72.75;41.65;;;9.90;99.90;;;;;;6124160;23;20128;-83
2023/02/16 12:43:18;;;;;;;76.75;45.65;;;9.90;99.90;;;;;;6100946;23;20068;-83
2023/02/16 12:45:46;;;;;;;72.78;44.22;;;9.60;99.90;;;;;;6009697;23;20035;-82
2023/02/16 12:48:26;;;;;;;67.88;42.50;;;9.80;99.90;;;;;;6009487;23;20135;-81
2023/02/16 12:50:55;;;;;;;73.97;43.10;;;9.90;99.90;;;;;;6033767;23;20091;-84
2023/02/16 12:53:31;;;;;;;75.20;42.67;;;10.00;99.90;;;;;;6009261;23;20035;-84
2023/02/16 12:56:04;;;;;;;66.75;38.58;;;9.80;99.90;;;;;;5987787;23;20011;-82
2023/02/16 12:58:34;;;;;;;76.50;42.95;;;9.80;99.90;;;;;;5987623;23;20063;-82
2023/02/16 13:01:10;;;;;;;71.70;41.72;;;10.00;99.90;;;;;;6016294;23;20051;-81
2023/02/16 13:03:45;;;;;;;74.32;43.08;;;10.10;99.90;;;;;;6097482;23;20029;-79
2023/02/16 13:06:39;;;;;;;66.50;40.80;;;10.00;99.90;;;;;;6073456;23;20108;-83
2023/02/16 13:09:15;;;;;;;64.38;38.58;;;10.20;99.90;;;;;;6096292;23;20076;-84
2023/02/16 13:11:57;;;;;;;57.15;36.72;;;10.10;99.90;;;;;;6099043;23;20056;-78
2023/02/16 13:14:26;;;;;;;58.83;38.00;;;10.20;99.90;;;;;;6075174;23;20121;-82
2023/02/16 13:17:14;;;;;;;67.00;40.08;;;10.30;99.90;;;;;;6072362;23;20457;-82
2023/02/16 13:19:42;;;;;;;59.20;37.50;;;10.10;99.90;;;;;;6121826;23;20644;-82
2023/02/16 13:22:41;;;;;;;65.07;38.80;;;10.30;99.90;;;;;;6133039;23;20023;-84
2023/02/16 13:25:25;;;;;;;55.45;36.22;;;10.40;99.90;;;;;;6216323;23;20043;-78
2023/02/16 13:28:22;;;;;;;57.17;34.97;;;10.30;99.90;;;;;;6239399;23;20020;-81
2023/02/16 13:31:14;;;;;;;51.85;34.05;;;10.80;99.90;;;;;;6214420;23;20026;-83
2023/02/16 13:33:54;;;;;;;60.17;34.72;;;10.70;99.90;;;;;;6071932;23;20312;-81
2023/02/16 13:36:38;;;;;;;50.75;31.30;;;10.80;99.90;;;;;;6067317;23;20353;-78
2023/02/16 13:39:28;;;;;;;45.55;30.00;;;10.80;99.90;;;;;;6041099;23;20423;-82
2023/02/16 13:42:13;;;;;;;43.50;28.83;;;10.80;99.90;;;;;;6043903;23;20049;-83
2023/02/16 13:44:49;;;;;;;45.53;28.27;;;10.70;99.90;;;;;;6075127;23;20033;-82